sensor_id;sensor_type;location;lat;lon;timestamp;P1;durP1;ratioP1;P2;durP2;ratioP2
7495;SDS011;3789;47.064;15.482;2022-08-21T00:01:19;1.25;;;1.15;;
7495;SDS011;3789;47.064;15.482;2022-08-21T00:03:50;1.55;;;1.45;;
7495;SDS011;3789;47.064;15.482;2022-08-21T00:06:19;2.00;;;1.30;;
7495;SDS011;3789;47.064;15.482;2022-08-21T00:08:49;1.30;;;1.20;;
7495;SDS011;3789;47.064;15.482;2022-08-21T00:11:17;1.65;;;1.20;;
7495;SDS011;3789;47.064;15.482;2022-08-21T00:13:47;1.23;;;1.13;;
7495;SDS011;3789;47.064;15.482;2022-08-21T00:16:17;1.50;;;1.40;;
7495;SDS011;3789;47.064;15.482;2022-08-21T00:18:54;1.60;;;1.50;;
7495;SDS011;3789;47.064;15.482;2022-08-21T00:21:28;1.30;;;1.20;;
7495;SDS011;3789;47.064;15.482;2022-08-21T00:23:58;1.50;;;1.40;;
7495;SDS011;3789;47.064;15.482;2022-08-21T00:26:26;1.45;;;1.35;;
7495;SDS011;3789;47.064;15.482;2022-08-21T00:28:54;1.40;;;1.30;;
7495;SDS011;3789;47.064;15.482;2022-08-21T00:31:24;1.50;;;1.40;;
7495;SDS011;3789;47.064;15.482;2022-08-21T00:33:54;1.42;;;1.27;;
7495;SDS011;3789;47.064;15.482;2022-08-21T00:36:27;1.35;;;1.25;;
7495;SDS011;3789;47.064;15.482;2022-08-21T00:39:06;1.33;;;1.23;;
7495;SDS011;3789;47.064;15.482;2022-08-21T00:41:37;3.10;;;1.50;;
7495;SDS011;3789;47.064;15.482;2022-08-21T00:44:15;1.50;;;1.40;;
7495;SDS011;3789;47.064;15.482;2022-08-21T00:46:44;1.40;;;1.30;;
7495;SDS011;3789;47.064;15.482;2022-08-21T00:49:15;1.40;;;1.30;;
7495;SDS011;3789;47.064;15.482;2022-08-21T00:51:46;1.20;;;1.10;;
7495;SDS011;3789;47.064;15.482;2022-08-21T00:54:31;1.50;;;1.38;;
7495;SDS011;3789;47.064;15.482;2022-08-21T00:57:03;1.42;;;1.33;;
7495;SDS011;3789;47.064;15.482;2022-08-21T00:59:36;1.75;;;1.40;;
7495;SDS011;3789;47.064;15.482;2022-08-21T01:02:07;1.40;;;1.30;;
7495;SDS011;3789;47.064;15.482;2022-08-21T01:04:36;1.70;;;1.58;;
7495;SDS011;3789;47.064;15.482;2022-08-21T01:07:08;1.70;;;1.60;;
7495;SDS011;3789;47.064;15.482;2022-08-21T01:09:49;1.40;;;1.30;;
7495;SDS011;3789;47.064;15.482;2022-08-21T01:12:26;1.45;;;1.35;;
7495;SDS011;3789;47.064;15.482;2022-08-21T01:15:04;1.50;;;1.40;;
7495;SDS011;3789;47.064;15.482;2022-08-21T01:17:34;1.50;;;1.40;;
7495;SDS011;3789;47.064;15.482;2022-08-21T01:20:11;2.33;;;1.50;;
7495;SDS011;3789;47.064;15.482;2022-08-21T01:22:39;1.50;;;1.40;;
7495;SDS011;3789;47.064;15.482;2022-08-21T01:25:11;1.80;;;1.50;;
7495;SDS011;3789;47.064;15.482;2022-08-21T01:27:46;1.50;;;1.40;;
7495;SDS011;3789;47.064;15.482;2022-08-21T01:30:18;1.50;;;1.40;;
7495;SDS011;3789;47.064;15.482;2022-08-21T01:32:50;1.40;;;1.30;;
7495;SDS011;3789;47.064;15.482;2022-08-21T01:35:18;1.60;;;1.50;;
7495;SDS011;3789;47.064;15.482;2022-08-21T01:37:46;3.75;;;1.25;;
7495;SDS011;3789;47.064;15.482;2022-08-21T01:40:15;1.60;;;1.50;;
7495;SDS011;3789;47.064;15.482;2022-08-21T01:42:44;2.08;;;1.60;;
7495;SDS011;3789;47.064;15.482;2022-08-21T01:45:13;2.22;;;1.50;;
7495;SDS011;3789;47.064;15.482;2022-08-21T01:47:42;2.40;;;1.60;;
7495;SDS011;3789;47.064;15.482;2022-08-21T01:50:11;2.78;;;1.55;;
7495;SDS011;3789;47.064;15.482;2022-08-21T01:52:41;1.42;;;1.33;;
7495;SDS011;3789;47.064;15.482;2022-08-21T01:55:09;1.63;;;1.52;;
7495;SDS011;3789;47.064;15.482;2022-08-21T01:57:38;1.50;;;1.40;;
7495;SDS011;3789;47.064;15.482;2022-08-21T02:00:07;1.60;;;1.50;;
7495;SDS011;3789;47.064;15.482;2022-08-21T02:02:37;2.05;;;1.55;;
7495;SDS011;3789;47.064;15.482;2022-08-21T02:05:07;1.52;;;1.42;;
7495;SDS011;3789;47.064;15.482;2022-08-21T02:07:37;2.15;;;1.65;;
7495;SDS011;3789;47.064;15.482;2022-08-21T02:10:06;1.70;;;1.60;;
7495;SDS011;3789;47.064;15.482;2022-08-21T02:12:35;1.65;;;1.50;;
7495;SDS011;3789;47.064;15.482;2022-08-21T02:15:04;1.70;;;1.60;;
7495;SDS011;3789;47.064;15.482;2022-08-21T02:17:46;1.50;;;1.40;;
7495;SDS011;3789;47.064;15.482;2022-08-21T02:20:23;1.80;;;1.55;;
7495;SDS011;3789;47.064;15.482;2022-08-21T02:22:55;1.73;;;1.63;;
7495;SDS011;3789;47.064;15.482;2022-08-21T02:25:24;1.60;;;1.50;;
7495;SDS011;3789;47.064;15.482;2022-08-21T02:27:52;1.70;;;1.60;;
7495;SDS011;3789;47.064;15.482;2022-08-21T02:30:21;1.70;;;1.60;;
7495;SDS011;3789;47.064;15.482;2022-08-21T02:32:51;1.95;;;1.60;;
7495;SDS011;3789;47.064;15.482;2022-08-21T02:35:18;1.85;;;1.50;;
7495;SDS011;3789;47.064;15.482;2022-08-21T02:37:47;2.25;;;1.83;;
7495;SDS011;3789;47.064;15.482;2022-08-21T02:40:15;1.50;;;1.40;;
7495;SDS011;3789;47.064;15.482;2022-08-21T02:42:44;1.45;;;1.35;;
7495;SDS011;3789;47.064;15.482;2022-08-21T02:45:12;1.63;;;1.52;;
7495;SDS011;3789;47.064;15.482;2022-08-21T02:47:40;2.95;;;1.60;;
7495;SDS011;3789;47.064;15.482;2022-08-21T02:50:21;1.67;;;1.58;;
7495;SDS011;3789;47.064;15.482;2022-08-21T02:52:52;1.42;;;1.33;;
7495;SDS011;3789;47.064;15.482;2022-08-21T02:55:24;1.73;;;1.60;;
7495;SDS011;3789;47.064;15.482;2022-08-21T02:57:54;1.73;;;1.63;;
7495;SDS011;3789;47.064;15.482;2022-08-21T03:00:23;1.60;;;1.50;;
7495;SDS011;3789;47.064;15.482;2022-08-21T03:02:52;1.88;;;1.63;;
7495;SDS011;3789;47.064;15.482;2022-08-21T03:05:22;1.55;;;1.40;;
7495;SDS011;3789;47.064;15.482;2022-08-21T03:07:51;1.67;;;1.58;;
7495;SDS011;3789;47.064;15.482;2022-08-21T03:10:19;1.50;;;1.40;;
7495;SDS011;3789;47.064;15.482;2022-08-21T03:12:48;1.55;;;1.45;;
7495;SDS011;3789;47.064;15.482;2022-08-21T03:15:16;2.03;;;1.52;;
7495;SDS011;3789;47.064;15.482;2022-08-21T03:17:46;1.80;;;1.70;;
7495;SDS011;3789;47.064;15.482;2022-08-21T03:20:15;1.52;;;1.42;;
7495;SDS011;3789;47.064;15.482;2022-08-21T03:22:43;1.65;;;1.45;;
7495;SDS011;3789;47.064;15.482;2022-08-21T03:25:22;1.80;;;1.58;;
7495;SDS011;3789;47.064;15.482;2022-08-21T03:28:07;1.70;;;1.60;;
7495;SDS011;3789;47.064;15.482;2022-08-21T03:30:39;1.83;;;1.63;;
7495;SDS011;3789;47.064;15.482;2022-08-21T03:33:10;1.92;;;1.60;;
7495;SDS011;3789;47.064;15.482;2022-08-21T03:35:42;2.13;;;1.58;;
7495;SDS011;3789;47.064;15.482;2022-08-21T03:38:11;1.90;;;1.70;;
7495;SDS011;3789;47.064;15.482;2022-08-21T03:40:41;2.55;;;1.90;;
7495;SDS011;3789;47.064;15.482;2022-08-21T03:43:10;1.80;;;1.50;;
7495;SDS011;3789;47.064;15.482;2022-08-21T03:45:38;1.70;;;1.60;;
7495;SDS011;3789;47.064;15.482;2022-08-21T03:48:06;2.00;;;1.77;;
7495;SDS011;3789;47.064;15.482;2022-08-21T03:50:35;2.30;;;1.67;;
7495;SDS011;3789;47.064;15.482;2022-08-21T03:53:07;1.80;;;1.70;;
7495;SDS011;3789;47.064;15.482;2022-08-21T03:55:43;1.80;;;1.70;;
7495;SDS011;3789;47.064;15.482;2022-08-21T03:58:13;1.83;;;1.73;;
7495;SDS011;3789;47.064;15.482;2022-08-21T04:00:43;1.55;;;1.45;;
7495;SDS011;3789;47.064;15.482;2022-08-21T04:03:15;1.88;;;1.73;;
7495;SDS011;3789;47.064;15.482;2022-08-21T04:05:44;2.30;;;1.90;;
7495;SDS011;3789;47.064;15.482;2022-08-21T04:08:12;1.80;;;1.70;;
7495;SDS011;3789;47.064;15.482;2022-08-21T04:10:41;1.90;;;1.70;;
7495;SDS011;3789;47.064;15.482;2022-08-21T04:13:10;1.83;;;1.65;;
7495;SDS011;3789;47.064;15.482;2022-08-21T04:15:37;1.70;;;1.60;;
7495;SDS011;3789;47.064;15.482;2022-08-21T04:18:05;1.90;;;1.63;;
7495;SDS011;3789;47.064;15.482;2022-08-21T04:20:32;1.80;;;1.70;;
7495;SDS011;3789;47.064;15.482;2022-08-21T04:23:00;2.00;;;1.80;;
7495;SDS011;3789;47.064;15.482;2022-08-21T04:25:29;1.70;;;1.60;;
7495;SDS011;3789;47.064;15.482;2022-08-21T04:27:56;2.45;;;1.63;;
7495;SDS011;3789;47.064;15.482;2022-08-21T04:30:24;1.90;;;1.80;;
7495;SDS011;3789;47.064;15.482;2022-08-21T04:32:54;1.70;;;1.60;;
7495;SDS011;3789;47.064;15.482;2022-08-21T04:35:24;1.80;;;1.70;;
7495;SDS011;3789;47.064;15.482;2022-08-21T04:37:53;1.90;;;1.80;;
7495;SDS011;3789;47.064;15.482;2022-08-21T04:40:21;1.92;;;1.83;;
7495;SDS011;3789;47.064;15.482;2022-08-21T04:42:53;1.63;;;1.52;;
7495;SDS011;3789;47.064;15.482;2022-08-21T04:45:28;2.55;;;1.70;;
7495;SDS011;3789;47.064;15.482;2022-08-21T04:48:04;2.10;;;1.90;;
7495;SDS011;3789;47.064;15.482;2022-08-21T04:50:41;2.10;;;1.90;;
7495;SDS011;3789;47.064;15.482;2022-08-21T04:53:20;1.90;;;1.80;;
7495;SDS011;3789;47.064;15.482;2022-08-21T04:55:50;1.95;;;1.80;;
7495;SDS011;3789;47.064;15.482;2022-08-21T04:58:21;1.73;;;1.63;;
7495;SDS011;3789;47.064;15.482;2022-08-21T05:00:53;4.43;;;2.03;;
7495;SDS011;3789;47.064;15.482;2022-08-21T05:03:22;1.83;;;1.70;;
7495;SDS011;3789;47.064;15.482;2022-08-21T05:05:50;1.83;;;1.70;;
7495;SDS011;3789;47.064;15.482;2022-08-21T05:08:18;1.85;;;1.67;;
7495;SDS011;3789;47.064;15.482;2022-08-21T05:10:47;1.73;;;1.60;;
7495;SDS011;3789;47.064;15.482;2022-08-21T05:13:14;1.88;;;1.77;;
7495;SDS011;3789;47.064;15.482;2022-08-21T05:15:42;1.67;;;1.58;;
7495;SDS011;3789;47.064;15.482;2022-08-21T05:18:10;2.20;;;1.88;;
7495;SDS011;3789;47.064;15.482;2022-08-21T05:20:37;2.20;;;1.90;;
7495;SDS011;3789;47.064;15.482;2022-08-21T05:23:08;1.80;;;1.70;;
7495;SDS011;3789;47.064;15.482;2022-08-21T05:25:39;1.52;;;1.42;;
7495;SDS011;3789;47.064;15.482;2022-08-21T05:28:07;2.05;;;1.88;;
7495;SDS011;3789;47.064;15.482;2022-08-21T05:30:34;2.00;;;1.70;;
7495;SDS011;3789;47.064;15.482;2022-08-21T05:33:04;1.73;;;1.60;;
7495;SDS011;3789;47.064;15.482;2022-08-21T05:35:33;2.65;;;1.83;;
7495;SDS011;3789;47.064;15.482;2022-08-21T05:38:01;2.13;;;1.70;;
7495;SDS011;3789;47.064;15.482;2022-08-21T05:40:29;1.77;;;1.67;;
7495;SDS011;3789;47.064;15.482;2022-08-21T05:42:57;2.95;;;1.73;;
7495;SDS011;3789;47.064;15.482;2022-08-21T05:45:30;2.20;;;1.80;;
7495;SDS011;3789;47.064;15.482;2022-08-21T05:48:15;1.70;;;1.55;;
7495;SDS011;3789;47.064;15.482;2022-08-21T05:50:45;1.73;;;1.63;;
7495;SDS011;3789;47.064;15.482;2022-08-21T05:53:14;1.92;;;1.60;;
7495;SDS011;3789;47.064;15.482;2022-08-21T05:55:43;1.73;;;1.63;;
7495;SDS011;3789;47.064;15.482;2022-08-21T05:58:16;1.90;;;1.70;;
7495;SDS011;3789;47.064;15.482;2022-08-21T06:00:46;1.70;;;1.60;;
7495;SDS011;3789;47.064;15.482;2022-08-21T06:03:17;2.20;;;1.90;;
7495;SDS011;3789;47.064;15.482;2022-08-21T06:05:49;1.70;;;1.60;;
7495;SDS011;3789;47.064;15.482;2022-08-21T06:08:17;1.83;;;1.70;;
7495;SDS011;3789;47.064;15.482;2022-08-21T06:10:45;3.15;;;1.80;;
7495;SDS011;3789;47.064;15.482;2022-08-21T06:13:14;1.90;;;1.70;;
7495;SDS011;3789;47.064;15.482;2022-08-21T06:15:42;1.90;;;1.80;;
7495;SDS011;3789;47.064;15.482;2022-08-21T06:18:10;2.47;;;1.65;;
7495;SDS011;3789;47.064;15.482;2022-08-21T06:20:38;1.60;;;1.50;;
7495;SDS011;3789;47.064;15.482;2022-08-21T06:23:06;1.80;;;1.70;;
7495;SDS011;3789;47.064;15.482;2022-08-21T06:25:34;1.70;;;1.60;;
7495;SDS011;3789;47.064;15.482;2022-08-21T06:28:03;1.70;;;1.40;;
7495;SDS011;3789;47.064;15.482;2022-08-21T06:30:32;1.52;;;1.42;;
7495;SDS011;3789;47.064;15.482;2022-08-21T06:33:01;1.65;;;1.40;;
7495;SDS011;3789;47.064;15.482;2022-08-21T06:35:29;1.77;;;1.67;;
7495;SDS011;3789;47.064;15.482;2022-08-21T06:37:56;1.80;;;1.65;;
7495;SDS011;3789;47.064;15.482;2022-08-21T06:40:25;1.88;;;1.60;;
7495;SDS011;3789;47.064;15.482;2022-08-21T06:42:55;1.42;;;1.33;;
7495;SDS011;3789;47.064;15.482;2022-08-21T06:45:32;1.50;;;1.40;;
7495;SDS011;3789;47.064;15.482;2022-08-21T06:47:59;1.48;;;1.38;;
7495;SDS011;3789;47.064;15.482;2022-08-21T06:50:26;1.30;;;1.20;;
7495;SDS011;3789;47.064;15.482;2022-08-21T06:53:00;1.60;;;1.50;;
7495;SDS011;3789;47.064;15.482;2022-08-21T06:55:36;1.63;;;1.52;;
7495;SDS011;3789;47.064;15.482;2022-08-21T06:58:04;1.58;;;1.48;;
7495;SDS011;3789;47.064;15.482;2022-08-21T07:00:33;1.30;;;1.20;;
7495;SDS011;3789;47.064;15.482;2022-08-21T07:03:01;1.50;;;1.40;;
7495;SDS011;3789;47.064;15.482;2022-08-21T07:05:29;1.40;;;1.30;;
7495;SDS011;3789;47.064;15.482;2022-08-21T07:07:57;2.72;;;1.48;;
7495;SDS011;3789;47.064;15.482;2022-08-21T07:10:25;1.58;;;1.48;;
7495;SDS011;3789;47.064;15.482;2022-08-21T07:12:53;1.50;;;1.40;;
7495;SDS011;3789;47.064;15.482;2022-08-21T07:15:29;1.60;;;1.50;;
7495;SDS011;3789;47.064;15.482;2022-08-21T07:17:58;2.10;;;1.38;;
7495;SDS011;3789;47.064;15.482;2022-08-21T07:20:26;1.40;;;1.30;;
7495;SDS011;3789;47.064;15.482;2022-08-21T07:22:55;1.40;;;1.30;;
7495;SDS011;3789;47.064;15.482;2022-08-21T07:25:31;1.50;;;1.40;;
7495;SDS011;3789;47.064;15.482;2022-08-21T07:27:58;1.50;;;1.40;;
7495;SDS011;3789;47.064;15.482;2022-08-21T07:30:26;1.58;;;1.45;;
7495;SDS011;3789;47.064;15.482;2022-08-21T07:32:54;1.50;;;1.40;;
7495;SDS011;3789;47.064;15.482;2022-08-21T07:35:23;1.50;;;1.40;;
7495;SDS011;3789;47.064;15.482;2022-08-21T07:37:51;1.30;;;1.20;;
7495;SDS011;3789;47.064;15.482;2022-08-21T07:40:18;1.48;;;1.38;;
7495;SDS011;3789;47.064;15.482;2022-08-21T07:42:47;1.25;;;1.15;;
7495;SDS011;3789;47.064;15.482;2022-08-21T07:45:19;2.03;;;1.27;;
7495;SDS011;3789;47.064;15.482;2022-08-21T07:47:48;1.50;;;1.40;;
7495;SDS011;3789;47.064;15.482;2022-08-21T07:50:22;1.30;;;1.20;;
7495;SDS011;3789;47.064;15.482;2022-08-21T07:52:49;1.27;;;1.17;;
7495;SDS011;3789;47.064;15.482;2022-08-21T07:55:17;1.50;;;1.40;;
7495;SDS011;3789;47.064;15.482;2022-08-21T07:57:46;1.60;;;1.50;;
7495;SDS011;3789;47.064;15.482;2022-08-21T08:00:14;1.40;;;1.30;;
7495;SDS011;3789;47.064;15.482;2022-08-21T08:02:44;1.40;;;1.30;;
7495;SDS011;3789;47.064;15.482;2022-08-21T08:05:12;1.52;;;1.23;;
7495;SDS011;3789;47.064;15.482;2022-08-21T08:07:57;1.40;;;1.30;;
7495;SDS011;3789;47.064;15.482;2022-08-21T08:10:25;1.30;;;1.20;;
7495;SDS011;3789;47.064;15.482;2022-08-21T08:12:53;1.85;;;1.35;;
7495;SDS011;3789;47.064;15.482;2022-08-21T08:15:23;1.30;;;1.20;;
7495;SDS011;3789;47.064;15.482;2022-08-21T08:17:52;1.55;;;1.42;;
7495;SDS011;3789;47.064;15.482;2022-08-21T08:20:21;1.40;;;1.30;;
7495;SDS011;3789;47.064;15.482;2022-08-21T08:22:49;1.20;;;1.10;;
7495;SDS011;3789;47.064;15.482;2022-08-21T08:25:17;1.15;;;1.08;;
7495;SDS011;3789;47.064;15.482;2022-08-21T08:27:45;1.35;;;1.25;;
7495;SDS011;3789;47.064;15.482;2022-08-21T08:30:13;1.42;;;1.30;;
7495;SDS011;3789;47.064;15.482;2022-08-21T08:32:42;1.10;;;1.00;;
7495;SDS011;3789;47.064;15.482;2022-08-21T08:35:10;1.08;;;1.02;;
7495;SDS011;3789;47.064;15.482;2022-08-21T08:37:39;1.40;;;1.30;;
7495;SDS011;3789;47.064;15.482;2022-08-21T08:40:11;1.20;;;1.10;;
7495;SDS011;3789;47.064;15.482;2022-08-21T08:43:00;1.15;;;1.05;;
7495;SDS011;3789;47.064;15.482;2022-08-21T08:45:27;1.30;;;1.08;;
7495;SDS011;3789;47.064;15.482;2022-08-21T08:48:03;1.20;;;1.10;;
7495;SDS011;3789;47.064;15.482;2022-08-21T08:50:51;1.20;;;1.10;;
7495;SDS011;3789;47.064;15.482;2022-08-21T08:53:25;1.25;;;1.10;;
7495;SDS011;3789;47.064;15.482;2022-08-21T08:56:01;1.10;;;1.00;;
7495;SDS011;3789;47.064;15.482;2022-08-21T08:58:34;1.30;;;1.20;;
7495;SDS011;3789;47.064;15.482;2022-08-21T09:01:07;1.10;;;1.00;;
7495;SDS011;3789;47.064;15.482;2022-08-21T09:03:42;0.93;;;0.90;;
7495;SDS011;3789;47.064;15.482;2022-08-21T09:09:06;1.13;;;1.05;;
7495;SDS011;3789;47.064;15.482;2022-08-21T09:11:43;0.90;;;0.90;;
7495;SDS011;3789;47.064;15.482;2022-08-21T09:14:24;1.33;;;1.08;;
7495;SDS011;3789;47.064;15.482;2022-08-21T09:17:01;1.10;;;1.00;;
7495;SDS011;3789;47.064;15.482;2022-08-21T09:25:22;0.90;;;0.90;;
7495;SDS011;3789;47.064;15.482;2022-08-21T09:27:53;1.10;;;1.00;;
7495;SDS011;3789;47.064;15.482;2022-08-21T09:30:24;1.05;;;1.00;;
7495;SDS011;3789;47.064;15.482;2022-08-21T09:32:57;1.20;;;1.10;;
7495;SDS011;3789;47.064;15.482;2022-08-21T09:35:25;1.13;;;1.02;;
7495;SDS011;3789;47.064;15.482;2022-08-21T09:38:00;1.10;;;1.00;;
7495;SDS011;3789;47.064;15.482;2022-08-21T09:43:21;1.20;;;1.10;;
7495;SDS011;3789;47.064;15.482;2022-08-21T09:46:05;0.95;;;0.90;;
7495;SDS011;3789;47.064;15.482;2022-08-21T09:48:47;1.15;;;1.05;;
7495;SDS011;3789;47.064;15.482;2022-08-21T09:51:18;1.38;;;1.10;;
7495;SDS011;3789;47.064;15.482;2022-08-21T09:53:49;1.30;;;1.20;;
7495;SDS011;3789;47.064;15.482;2022-08-21T09:59:34;1.20;;;1.10;;
7495;SDS011;3789;47.064;15.482;2022-08-21T10:04:55;1.20;;;1.10;;
7495;SDS011;3789;47.064;15.482;2022-08-21T10:07:29;2.15;;;1.20;;
7495;SDS011;3789;47.064;15.482;2022-08-21T10:10:05;1.30;;;1.20;;
7495;SDS011;3789;47.064;15.482;2022-08-21T10:12:56;1.40;;;1.30;;
7495;SDS011;3789;47.064;15.482;2022-08-21T10:23:45;1.30;;;1.20;;
7495;SDS011;3789;47.064;15.482;2022-08-21T10:37:47;1.73;;;1.40;;
7495;SDS011;3789;47.064;15.482;2022-08-21T10:40:27;1.60;;;1.50;;
7495;SDS011;3789;47.064;15.482;2022-08-21T10:43:21;1.65;;;1.45;;
7495;SDS011;3789;47.064;15.482;2022-08-21T10:48:58;2.00;;;1.58;;
7495;SDS011;3789;47.064;15.482;2022-08-21T10:54:52;1.40;;;1.20;;
7495;SDS011;3789;47.064;15.482;2022-08-21T10:57:37;1.50;;;1.20;;
7495;SDS011;3789;47.064;15.482;2022-08-21T11:00:23;2.55;;;1.30;;
7495;SDS011;3789;47.064;15.482;2022-08-21T11:06:06;2.85;;;1.50;;
7495;SDS011;3789;47.064;15.482;2022-08-21T11:08:41;2.17;;;1.98;;
7495;SDS011;3789;47.064;15.482;2022-08-21T11:14:09;1.20;;;1.10;;
7495;SDS011;3789;47.064;15.482;2022-08-21T11:16:48;1.48;;;1.38;;
7495;SDS011;3789;47.064;15.482;2022-08-21T11:19:30;1.35;;;1.25;;
7495;SDS011;3789;47.064;15.482;2022-08-21T11:22:50;1.25;;;1.15;;
7495;SDS011;3789;47.064;15.482;2022-08-21T11:26:00;1.15;;;1.05;;
7495;SDS011;3789;47.064;15.482;2022-08-21T11:28:33;1.10;;;1.00;;
7495;SDS011;3789;47.064;15.482;2022-08-21T11:31:23;1.17;;;1.08;;
7495;SDS011;3789;47.064;15.482;2022-08-21T11:43:50;1.27;;;1.17;;
7495;SDS011;3789;47.064;15.482;2022-08-21T11:47:21;1.20;;;1.10;;
7495;SDS011;3789;47.064;15.482;2022-08-21T11:53:07;2.40;;;1.10;;
7495;SDS011;3789;47.064;15.482;2022-08-21T11:56:12;1.10;;;1.00;;
7495;SDS011;3789;47.064;15.482;2022-08-21T11:58:51;1.95;;;1.60;;
7495;SDS011;3789;47.064;15.482;2022-08-21T12:01:44;1.27;;;1.17;;
7495;SDS011;3789;47.064;15.482;2022-08-21T12:04:34;1.27;;;1.02;;
7495;SDS011;3789;47.064;15.482;2022-08-21T12:07:16;1.05;;;1.00;;
7495;SDS011;3789;47.064;15.482;2022-08-21T12:10:01;1.10;;;1.00;;
7495;SDS011;3789;47.064;15.482;2022-08-21T12:12:34;0.80;;;0.80;;
7495;SDS011;3789;47.064;15.482;2022-08-21T12:20:38;0.82;;;0.82;;
7495;SDS011;3789;47.064;15.482;2022-08-21T12:23:19;0.98;;;0.90;;
7495;SDS011;3789;47.064;15.482;2022-08-21T12:26:24;1.80;;;1.38;;
7495;SDS011;3789;47.064;15.482;2022-08-21T12:29:05;1.88;;;0.82;;
7495;SDS011;3789;47.064;15.482;2022-08-21T12:38:21;1.20;;;1.10;;
7495;SDS011;3789;47.064;15.482;2022-08-21T12:41:20;0.60;;;0.60;;
7495;SDS011;3789;47.064;15.482;2022-08-21T12:44:08;0.80;;;0.75;;
7495;SDS011;3789;47.064;15.482;2022-08-21T12:49:33;0.95;;;0.90;;
7495;SDS011;3789;47.064;15.482;2022-08-21T12:52:28;1.60;;;0.80;;
7495;SDS011;3789;47.064;15.482;2022-08-21T12:55:11;0.73;;;0.73;;
7495;SDS011;3789;47.064;15.482;2022-08-21T12:57:44;0.73;;;0.73;;
7495;SDS011;3789;47.064;15.482;2022-08-21T13:00:20;0.75;;;0.75;;
7495;SDS011;3789;47.064;15.482;2022-08-21T13:02:54;0.70;;;0.70;;
7495;SDS011;3789;47.064;15.482;2022-08-21T13:05:28;0.88;;;0.82;;
7495;SDS011;3789;47.064;15.482;2022-08-21T13:08:08;0.68;;;0.60;;
7495;SDS011;3789;47.064;15.482;2022-08-21T13:11:03;0.70;;;0.70;;
7495;SDS011;3789;47.064;15.482;2022-08-21T13:13:40;0.63;;;0.63;;
7495;SDS011;3789;47.064;15.482;2022-08-21T13:16:13;1.27;;;0.70;;
7495;SDS011;3789;47.064;15.482;2022-08-21T13:21:42;0.65;;;0.65;;
7495;SDS011;3789;47.064;15.482;2022-08-21T13:27:17;0.88;;;0.80;;
7495;SDS011;3789;47.064;15.482;2022-08-21T13:30:01;0.73;;;0.70;;
7495;SDS011;3789;47.064;15.482;2022-08-21T13:32:45;0.60;;;0.60;;
7495;SDS011;3789;47.064;15.482;2022-08-21T13:35:22;0.60;;;0.60;;
7495;SDS011;3789;47.064;15.482;2022-08-21T13:37:58;0.85;;;0.80;;
7495;SDS011;3789;47.064;15.482;2022-08-21T13:40:29;0.60;;;0.60;;
7495;SDS011;3789;47.064;15.482;2022-08-21T13:43:01;0.80;;;0.63;;
7495;SDS011;3789;47.064;15.482;2022-08-21T13:45:30;0.50;;;0.50;;
7495;SDS011;3789;47.064;15.482;2022-08-21T13:48:00;0.55;;;0.55;;
7495;SDS011;3789;47.064;15.482;2022-08-21T13:51:08;0.63;;;0.63;;
7495;SDS011;3789;47.064;15.482;2022-08-21T13:56:41;0.70;;;0.70;;
7495;SDS011;3789;47.064;15.482;2022-08-21T13:59:10;0.57;;;0.57;;
7495;SDS011;3789;47.064;15.482;2022-08-21T14:05:02;1.10;;;1.00;;
7495;SDS011;3789;47.064;15.482;2022-08-21T14:07:33;0.82;;;0.70;;
7495;SDS011;3789;47.064;15.482;2022-08-21T14:10:21;0.70;;;0.70;;
7495;SDS011;3789;47.064;15.482;2022-08-21T14:13:01;0.82;;;0.82;;
7495;SDS011;3789;47.064;15.482;2022-08-21T14:15:31;0.73;;;0.73;;
7495;SDS011;3789;47.064;15.482;2022-08-21T14:18:17;0.57;;;0.57;;
7495;SDS011;3789;47.064;15.482;2022-08-21T14:21:06;0.63;;;0.63;;
7495;SDS011;3789;47.064;15.482;2022-08-21T14:23:36;0.88;;;0.88;;
7495;SDS011;3789;47.064;15.482;2022-08-21T14:26:14;0.93;;;0.90;;
7495;SDS011;3789;47.064;15.482;2022-08-21T14:28:47;0.80;;;0.80;;
7495;SDS011;3789;47.064;15.482;2022-08-21T14:31:18;0.80;;;0.80;;
7495;SDS011;3789;47.064;15.482;2022-08-21T14:33:48;1.08;;;0.90;;
7495;SDS011;3789;47.064;15.482;2022-08-21T14:36:17;0.70;;;0.70;;
7495;SDS011;3789;47.064;15.482;2022-08-21T14:38:47;0.68;;;0.68;;
7495;SDS011;3789;47.064;15.482;2022-08-21T14:41:19;1.98;;;0.80;;
7495;SDS011;3789;47.064;15.482;2022-08-21T14:44:01;3.08;;;1.48;;
7495;SDS011;3789;47.064;15.482;2022-08-21T14:46:36;1.38;;;0.93;;
7495;SDS011;3789;47.064;15.482;2022-08-21T14:49:24;1.98;;;1.00;;
7495;SDS011;3789;47.064;15.482;2022-08-21T14:51:58;5.28;;;1.13;;
7495;SDS011;3789;47.064;15.482;2022-08-21T14:54:35;4.72;;;1.52;;
7495;SDS011;3789;47.064;15.482;2022-08-21T14:57:06;19.40;;;5.15;;
7495;SDS011;3789;47.064;15.482;2022-08-21T14:59:38;2.42;;;1.20;;
7495;SDS011;3789;47.064;15.482;2022-08-21T15:02:08;10.95;;;2.85;;
7495;SDS011;3789;47.064;15.482;2022-08-21T15:04:45;10.85;;;3.40;;
7495;SDS011;3789;47.064;15.482;2022-08-21T15:07:16;1.35;;;1.20;;
7495;SDS011;3789;47.064;15.482;2022-08-21T15:09:46;1.45;;;1.35;;
7495;SDS011;3789;47.064;15.482;2022-08-21T15:12:13;1.40;;;1.30;;
7495;SDS011;3789;47.064;15.482;2022-08-21T15:14:43;1.60;;;1.50;;
7495;SDS011;3789;47.064;15.482;2022-08-21T15:17:13;1.20;;;1.10;;
7495;SDS011;3789;47.064;15.482;2022-08-21T15:19:42;1.50;;;1.40;;
7495;SDS011;3789;47.064;15.482;2022-08-21T15:22:11;1.60;;;1.50;;
7495;SDS011;3789;47.064;15.482;2022-08-21T15:24:45;1.50;;;1.40;;
7495;SDS011;3789;47.064;15.482;2022-08-21T15:27:14;1.70;;;1.50;;
7495;SDS011;3789;47.064;15.482;2022-08-21T15:29:49;1.50;;;1.40;;
7495;SDS011;3789;47.064;15.482;2022-08-21T15:32:24;1.60;;;1.50;;
7495;SDS011;3789;47.064;15.482;2022-08-21T15:34:57;1.60;;;1.40;;
7495;SDS011;3789;47.064;15.482;2022-08-21T15:37:33;1.50;;;1.40;;
7495;SDS011;3789;47.064;15.482;2022-08-21T15:40:02;1.70;;;1.60;;
7495;SDS011;3789;47.064;15.482;2022-08-21T15:42:42;1.70;;;1.50;;
7495;SDS011;3789;47.064;15.482;2022-08-21T15:45:18;1.60;;;1.50;;
7495;SDS011;3789;47.064;15.482;2022-08-21T15:47:47;2.60;;;1.60;;
7495;SDS011;3789;47.064;15.482;2022-08-21T15:50:17;2.00;;;1.70;;
7495;SDS011;3789;47.064;15.482;2022-08-21T15:52:53;1.70;;;1.50;;
7495;SDS011;3789;47.064;15.482;2022-08-21T15:55:23;1.80;;;1.70;;
7495;SDS011;3789;47.064;15.482;2022-08-21T15:57:52;2.03;;;1.70;;
7495;SDS011;3789;47.064;15.482;2022-08-21T16:00:23;1.77;;;1.67;;
7495;SDS011;3789;47.064;15.482;2022-08-21T16:02:55;2.03;;;1.80;;
7495;SDS011;3789;47.064;15.482;2022-08-21T16:05:28;2.03;;;1.77;;
7495;SDS011;3789;47.064;15.482;2022-08-21T16:08:06;1.70;;;1.60;;
7495;SDS011;3789;47.064;15.482;2022-08-21T16:10:37;1.77;;;1.67;;
7495;SDS011;3789;47.064;15.482;2022-08-21T16:13:11;1.80;;;1.70;;
7495;SDS011;3789;47.064;15.482;2022-08-21T16:15:54;2.05;;;1.50;;
7495;SDS011;3789;47.064;15.482;2022-08-21T16:18:24;1.70;;;1.60;;
7495;SDS011;3789;47.064;15.482;2022-08-21T16:20:56;1.90;;;1.80;;
7495;SDS011;3789;47.064;15.482;2022-08-21T16:23:34;2.10;;;1.67;;
7495;SDS011;3789;47.064;15.482;2022-08-21T16:26:05;1.90;;;1.80;;
7495;SDS011;3789;47.064;15.482;2022-08-21T16:28:47;1.90;;;1.80;;
7495;SDS011;3789;47.064;15.482;2022-08-21T16:31:30;1.90;;;1.73;;
7495;SDS011;3789;47.064;15.482;2022-08-21T16:34:00;1.80;;;1.70;;
7495;SDS011;3789;47.064;15.482;2022-08-21T16:36:33;2.05;;;1.90;;
7495;SDS011;3789;47.064;15.482;2022-08-21T16:39:02;2.08;;;1.88;;
7495;SDS011;3789;47.064;15.482;2022-08-21T16:41:32;1.90;;;1.80;;
7495;SDS011;3789;47.064;15.482;2022-08-21T16:44:03;2.33;;;2.13;;
7495;SDS011;3789;47.064;15.482;2022-08-21T16:46:34;2.20;;;2.00;;
7495;SDS011;3789;47.064;15.482;2022-08-21T16:49:09;2.20;;;2.00;;
7495;SDS011;3789;47.064;15.482;2022-08-21T16:51:38;2.20;;;2.00;;
7495;SDS011;3789;47.064;15.482;2022-08-21T16:54:06;2.58;;;2.10;;
7495;SDS011;3789;47.064;15.482;2022-08-21T16:56:36;2.22;;;2.05;;
7495;SDS011;3789;47.064;15.482;2022-08-21T16:59:14;2.13;;;1.90;;
7495;SDS011;3789;47.064;15.482;2022-08-21T17:01:44;2.53;;;2.33;;
7495;SDS011;3789;47.064;15.482;2022-08-21T17:04:13;2.28;;;2.08;;
7495;SDS011;3789;47.064;15.482;2022-08-21T17:06:42;2.63;;;2.00;;